createdAt,value
2023-11-12T00:00:39.079Z,96200.03
2023-11-12T00:01:41.868Z,96197.78
2023-11-12T00:02:44.182Z,96201.00
2023-11-12T00:03:46.249Z,96201.00
2023-11-12T00:04:48.815Z,96207.34
2023-11-12T00:05:52.103Z,96209.13
2023-11-12T00:06:54.101Z,96207.69
2023-11-12T00:07:56.103Z,96202.97
2023-11-12T00:08:58.921Z,96195.03
2023-11-12T00:10:00.741Z,96201.59
2023-11-12T00:11:02.772Z,96201.25
2023-11-12T00:12:05.241Z,96204.44
2023-11-12T00:13:07.095Z,96197.31
2023-11-12T00:14:09.347Z,96195.50
2023-11-12T00:15:11.622Z,96200.50
2023-11-12T00:16:13.990Z,96194.31
2023-11-12T00:17:17.615Z,96193.16
2023-11-12T00:18:20.216Z,96194.75
2023-11-12T00:19:22.234Z,96203.13
2023-11-12T00:20:26.822Z,96197.97
2023-11-12T00:21:28.885Z,96192.78
2023-11-12T00:22:30.847Z,96199.75
2023-11-12T00:23:34.243Z,96193.56
2023-11-12T00:24:36.639Z,96198.75
2023-11-12T00:25:38.416Z,96196.34
2023-11-12T00:26:40.402Z,96199.53
2023-11-12T00:27:42.250Z,96200.38
2023-11-12T00:28:44.219Z,96200.91
2023-11-12T00:29:46.207Z,96192.91
2023-11-12T00:30:48.681Z,96191.50
2023-11-12T00:31:50.918Z,96189.28
2023-11-12T00:32:54.527Z,96192.88
2023-11-12T00:33:56.921Z,96198.66
2023-11-12T00:34:58.805Z,96196.88
2023-11-12T00:36:01.048Z,96199.81
2023-11-12T00:37:03.429Z,96196.44
2023-11-12T00:38:05.810Z,96194.47
2023-11-12T00:39:07.846Z,96195.47
2023-11-12T00:40:12.389Z,96195.47
2023-11-12T00:41:19.358Z,96195.47
2023-11-12T00:42:21.439Z,96198.06
2023-11-12T00:43:30.566Z,96196.06
2023-11-12T00:44:32.503Z,96206.22
2023-11-12T00:45:34.968Z,96204.44
2023-11-12T00:46:38.058Z,96196.69
2023-11-12T00:47:39.972Z,96197.47
2023-11-12T00:48:41.934Z,96199.88
2023-11-12T00:49:44.013Z,96194.72
2023-11-12T00:50:45.993Z,96194.91
2023-11-12T00:51:47.909Z,96193.28
2023-11-12T00:52:49.919Z,96203.44
2023-11-12T00:53:52.929Z,96193.91
2023-11-12T00:54:54.788Z,96192.31
2023-11-12T00:56:00.858Z,96193.28
2023-11-12T00:57:02.809Z,96195.88
2023-11-12T00:58:04.896Z,96194.47
2023-11-12T00:59:07.178Z,96193.84
2023-11-12T01:00:09.956Z,96196.44
2023-11-12T01:01:12.777Z,96201.78
2023-11-12T01:02:17.723Z,96202.00
2023-11-12T01:03:20.010Z,96202.97
2023-11-12T01:04:21.992Z,96201.75
2023-11-12T01:05:23.900Z,96201.13
2023-11-12T01:06:25.906Z,96202.47
2023-11-12T01:07:28.391Z,96202.47
2023-11-12T01:08:31.532Z,96206.03
2023-11-12T01:09:33.788Z,96198.28
2023-11-12T01:10:35.715Z,96197.47
2023-11-12T01:11:39.064Z,96201.25
2023-11-12T01:12:41.026Z,96198.03
2023-11-12T01:13:43.091Z,96200.03
2023-11-12T01:14:44.984Z,96198.41
2023-11-12T01:15:47.197Z,96199.56
2023-11-12T01:16:50.018Z,96196.56
2023-11-12T01:17:52.274Z,96201.31
2023-11-12T01:18:54.321Z,96199.69
2023-11-12T01:19:56.822Z,96201.31
2023-11-12T01:20:58.779Z,96190.16
2023-11-12T01:22:00.935Z,96193.56
2023-11-12T01:23:03.059Z,96192.56
2023-11-12T01:24:06.198Z,96194.97
2023-11-12T01:25:08.914Z,96188.19
2023-11-12T01:26:10.946Z,96195.75
2023-11-12T01:27:13.245Z,96195.75
2023-11-12T01:28:15.277Z,96194.97
2023-11-12T01:29:17.317Z,96194.78
2023-11-12T01:30:19.454Z,96192.00
2023-11-12T01:31:21.383Z,96194.41
2023-11-12T01:32:24.086Z,96187.44
2023-11-12T01:33:26.499Z,96189.63
2023-11-12T01:34:28.645Z,96193.19
2023-11-12T01:35:30.842Z,96189.19
2023-11-12T01:36:32.721Z,96193.91
2023-11-12T01:37:34.631Z,96188.75
2023-11-12T01:38:36.595Z,96185.97
2023-11-12T01:39:38.680Z,96188.56
2023-11-12T01:40:42.701Z,96185.19
2023-11-12T01:41:45.277Z,96188.56
2023-11-12T01:42:47.739Z,96181.16
2023-11-12T01:43:49.814Z,96178.78
2023-11-12T01:44:51.987Z,96182.69
2023-11-12T01:45:54.086Z,96183.25
2023-11-12T01:46:56.156Z,96188.41
2023-11-12T01:47:58.905Z,96181.66
2023-11-12T01:49:01.988Z,96175.50
2023-11-12T01:50:09.046Z,96170.34
2023-11-12T01:51:11.610Z,96168.53
2023-11-12T01:52:14.705Z,96173.72
2023-11-12T01:53:17.505Z,96173.09
2023-11-12T01:54:19.593Z,96176.69
2023-11-12T01:55:24.788Z,96182.47
2023-11-12T01:56:27.337Z,96179.25
2023-11-12T01:57:30.134Z,96182.81
2023-11-12T01:58:32.645Z,96174.88
2023-11-12T01:59:37.231Z,96184.44
2023-11-12T02:00:41.259Z,96186.00
2023-11-12T02:01:43.944Z,96182.63
2023-11-12T02:02:46.795Z,96182.63
2023-11-12T02:03:50.666Z,96174.88
2023-11-12T02:04:53.117Z,96173.31
2023-11-12T02:05:54.927Z,96188.19
2023-11-12T02:06:57.370Z,96187.13
2023-11-12T02:08:02.015Z,96185.72
2023-11-12T02:09:04.244Z,96176.97
2023-11-12T02:10:10.829Z,96179.94
2023-11-12T02:11:15.497Z,96178.50
2023-11-12T02:12:17.917Z,96184.66
2023-11-12T02:13:20.617Z,96178.50
2023-11-12T02:14:24.926Z,96169.94
2023-11-12T02:15:27.150Z,96179.66
2023-11-12T02:16:29.081Z,96176.47
2023-11-12T02:17:33.197Z,96175.22
2023-11-12T02:18:35.296Z,96174.88
2023-11-12T02:19:37.720Z,96180.03
2023-11-12T02:20:49.370Z,96181.63
2023-11-12T02:21:51.430Z,96182.25
2023-11-12T02:22:53.615Z,96181.28
2023-11-12T02:23:55.554Z,96177.69
2023-11-12T02:24:57.802Z,96177.69
2023-11-12T02:25:59.699Z,96174.50
2023-11-12T02:27:02.101Z,96168.88
2023-11-12T02:28:04.571Z,96169.09
2023-11-12T02:29:08.292Z,96171.69
2023-11-12T02:30:10.573Z,96172.28
2023-11-12T02:31:12.880Z,96174.88
2023-11-12T02:32:14.864Z,96172.09
2023-11-12T02:33:18.155Z,96162.94
2023-11-12T02:34:23.254Z,96170.06
2023-11-12T02:35:25.149Z,96172.66
2023-11-12T02:36:27.321Z,96168.03
2023-11-12T02:37:30.019Z,96159.66
2023-11-12T02:38:32.703Z,96161.44
2023-11-12T02:39:34.737Z,96170.78
2023-11-12T02:40:36.685Z,96164.63
2023-11-12T02:41:40.857Z,96168.03
2023-11-12T02:42:42.809Z,96167.22
2023-11-12T02:43:44.869Z,96165.63
2023-11-12T02:44:47.064Z,96162.41
2023-11-12T02:45:50.263Z,96163.59
2023-11-12T02:46:52.306Z,96165.34
2023-11-12T02:47:54.568Z,96167.16
2023-11-12T02:49:09.271Z,96164.75
2023-11-12T02:50:36.851Z,96174.91
2023-11-12T02:51:40.152Z,96171.53
2023-11-12T02:52:42.365Z,96171.53
2023-11-12T02:53:44.389Z,96172.47
2023-11-12T02:54:46.303Z,96175.06
2023-11-12T02:55:48.248Z,96170.91
2023-11-12T02:56:50.135Z,96169.28
2023-11-12T02:57:52.739Z,96174.44
2023-11-12T02:58:55.777Z,96172.06
2023-11-12T02:59:57.805Z,96172.06
2023-11-12T03:00:59.877Z,96172.88
2023-11-12T03:02:02.164Z,96169.47
2023-11-12T03:03:04.419Z,96168.66
2023-11-12T03:04:07.852Z,96166.91
2023-11-12T03:05:10.445Z,96173.03
2023-11-12T03:06:13.045Z,96169.03
2023-11-12T03:07:15.023Z,96164.22
2023-11-12T03:08:16.922Z,96166.63
2023-11-12T03:09:19.009Z,96169.16
2023-11-12T03:10:22.059Z,96171.91
2023-11-12T03:11:27.456Z,96178.84
2023-11-12T03:12:29.729Z,96172.06
2023-11-12T03:13:31.840Z,96169.66
2023-11-12T03:14:34.946Z,96167.91
2023-11-12T03:15:37.220Z,96163.72
2023-11-12T03:16:39.471Z,96163.88
2023-11-12T03:17:41.920Z,96161.28
2023-11-12T03:18:47.947Z,96165.50
2023-11-12T03:19:51.434Z,96162.91
2023-11-12T03:20:53.804Z,96166.13
2023-11-12T03:21:56.713Z,96159.97
2023-11-12T03:22:59.079Z,96164.94
2023-11-12T03:24:01.135Z,96159.78
2023-11-12T03:25:06.264Z,96157.03
2023-11-12T03:26:08.197Z,96156.06
2023-11-12T03:27:12.127Z,96156.22
2023-11-12T03:28:14.034Z,96156.22
2023-11-12T03:29:15.911Z,96156.75
2023-11-12T03:30:17.913Z,96152.94
2023-11-12T03:31:19.906Z,96153.94
2023-11-12T03:32:22.844Z,96158.91
2023-11-12T03:33:24.768Z,96162.28
2023-11-12T03:34:27.639Z,96155.50
2023-11-12T03:35:30.554Z,96158.09
2023-11-12T03:36:32.619Z,96158.91
2023-11-12T03:37:34.641Z,96164.88
2023-11-12T03:38:37.174Z,96156.13
2023-11-12T03:39:39.187Z,96159.53
2023-11-12T03:40:41.131Z,96162.47
2023-11-12T03:41:43.080Z,96158.28
2023-11-12T03:42:45.217Z,96157.47
2023-11-12T03:43:47.553Z,96162.41
2023-11-12T03:44:51.003Z,96158.41
2023-11-12T03:45:53.289Z,96162.75
2023-11-12T03:46:55.305Z,96166.94
2023-11-12T03:47:57.305Z,96169.16
2023-11-12T03:48:59.430Z,96163.19
2023-11-12T03:50:01.553Z,96158.03
2023-11-12T03:51:03.515Z,96156.00
2023-11-12T03:52:06.505Z,96152.34
2023-11-12T03:53:08.526Z,96153.94
2023-11-12T03:54:12.226Z,96150.56
2023-11-12T03:55:14.361Z,96159.91
2023-11-12T03:56:16.280Z,96157.66
2023-11-12T03:57:18.831Z,96155.91
2023-11-12T03:58:20.954Z,96153.34
2023-11-12T03:59:23.121Z,96152.34
2023-11-12T04:00:25.732Z,96148.78
2023-11-12T04:01:27.747Z,96148.78
2023-11-12T04:02:29.852Z,96149.41
2023-11-12T04:03:32.305Z,96148.41
2023-11-12T04:04:34.380Z,96148.59
2023-11-12T04:05:36.455Z,96154.75
2023-11-12T04:06:38.614Z,96154.75
2023-11-12T04:07:40.580Z,96152.34
2023-11-12T04:08:42.421Z,96155.09
2023-11-12T04:09:44.375Z,96152.34
2023-11-12T04:10:47.780Z,96154.28
2023-11-12T04:11:50.182Z,96159.47
2023-11-12T04:12:52.338Z,96153.50
2023-11-12T04:13:54.435Z,96157.97
2023-11-12T04:14:56.582Z,96155.91
2023-11-12T04:15:58.564Z,96160.59
2023-11-12T04:17:01.077Z,96158.22
2023-11-12T04:18:03.111Z,96155.44
2023-11-12T04:19:05.329Z,96160.81
2023-11-12T04:20:09.966Z,96155.44
2023-11-12T04:21:15.256Z,96162.84
2023-11-12T04:22:17.188Z,96162.06
2023-11-12T04:23:19.248Z,96159.66
2023-11-12T04:24:21.177Z,96167.00
2023-11-12T04:25:23.168Z,96167.63
2023-11-12T04:26:26.118Z,96166.38
2023-11-12T04:27:28.240Z,96165.16
2023-11-12T04:28:30.599Z,96159.66
2023-11-12T04:29:32.434Z,96160.09
2023-11-12T04:30:35.324Z,96158.31
2023-11-12T04:31:38.159Z,96163.28
2023-11-12T04:32:40.281Z,96158.94
2023-11-12T04:33:42.323Z,96164.09
2023-11-12T04:34:48.032Z,96158.03
2023-11-12T04:35:51.423Z,96165.16
2023-11-12T04:36:53.653Z,96160.97
2023-11-12T04:37:55.618Z,96169.69
2023-11-12T04:39:00.649Z,96167.09
2023-11-12T04:40:05.198Z,96163.56
2023-11-12T04:41:08.038Z,96160.81
2023-11-12T04:42:10.038Z,96160.97
2023-11-12T04:43:13.819Z,96157.16
2023-11-12T04:44:15.900Z,96165.50
2023-11-12T04:45:21.311Z,96157.31
2023-11-12T04:46:24.401Z,96158.75
2023-11-12T04:47:26.815Z,96160.53
2023-11-12T04:48:28.645Z,96163.91
2023-11-12T04:49:30.590Z,96172.63
2023-11-12T04:50:32.606Z,96157.69
2023-11-12T04:51:34.910Z,96163.81
2023-11-12T04:52:37.002Z,96170.94
2023-11-12T04:53:39.686Z,96170.31
2023-11-12T04:54:41.554Z,96164.44
2023-11-12T04:55:43.557Z,96167.97
2023-11-12T04:56:48.585Z,96161.56
2023-11-12T04:57:50.874Z,96171.25
2023-11-12T04:58:54.204Z,96168.59
2023-11-12T04:59:56.800Z,96168.94
2023-11-12T05:00:59.231Z,96166.19
2023-11-12T05:02:01.531Z,96166.81
2023-11-12T05:03:06.123Z,96165.84
2023-11-12T05:04:08.557Z,96165.03
2023-11-12T05:05:10.838Z,96162.91
2023-11-12T05:06:12.645Z,96168.84
2023-11-12T05:07:14.592Z,96164.31
2023-11-12T05:08:16.423Z,96166.72
2023-11-12T05:09:18.252Z,96158.38
2023-11-12T05:10:20.008Z,96167.09
2023-11-12T05:11:21.713Z,96161.13
2023-11-12T05:12:23.797Z,96159.53
2023-11-12T05:13:25.773Z,96161.94
2023-11-12T05:14:27.570Z,96165.13
2023-11-12T05:15:29.436Z,96163.34
2023-11-12T05:16:31.251Z,96163.97
2023-11-12T05:17:33.027Z,96167.53
2023-11-12T05:18:35.588Z,96170.28
2023-11-12T05:19:37.516Z,96162.63
2023-11-12T05:20:39.461Z,96166.88
2023-11-12T05:21:45.978Z,96160.75
2023-11-12T05:22:48.181Z,96159.78
2023-11-12T05:23:50.159Z,96168.84
2023-11-12T05:24:52.867Z,96170.78
2023-11-12T05:25:56.463Z,96165.47
2023-11-12T05:26:58.333Z,96169.63
2023-11-12T05:28:00.812Z,96156.56
2023-11-12T05:29:02.888Z,96153.66
2023-11-12T05:30:05.575Z,96162.63
2023-11-12T05:31:07.590Z,96164.69
2023-11-12T05:32:09.901Z,96158.53
2023-11-12T05:33:11.828Z,96164.94
2023-11-12T05:34:14.657Z,96162.03
2023-11-12T05:35:17.142Z,96155.88
2023-11-12T05:36:19.277Z,96157.66
2023-11-12T05:37:21.294Z,96156.88
2023-11-12T05:38:23.433Z,96162.81
2023-11-12T05:39:25.543Z,96162.81
2023-11-12T05:40:27.551Z,96163.00
2023-11-12T05:41:30.220Z,96158.66
2023-11-12T05:42:32.087Z,96154.91
2023-11-12T05:43:34.077Z,96157.31
2023-11-12T05:44:36.100Z,96151.38
2023-11-12T05:45:38.221Z,96154.13
2023-11-12T05:46:40.527Z,96155.88
2023-11-12T05:47:42.660Z,96159.28
2023-11-12T05:48:44.686Z,96151.38
2023-11-12T05:49:46.487Z,96154.56
2023-11-12T05:50:50.109Z,96156.00
2023-11-12T05:51:51.839Z,96154.03
2023-11-12T05:52:54.403Z,96151.63
2023-11-12T05:53:56.444Z,96147.09
2023-11-12T05:54:58.315Z,96152.25
2023-11-12T05:56:00.429Z,96147.88
2023-11-12T05:57:02.360Z,96145.94
2023-11-12T05:58:04.515Z,96145.50
2023-11-12T05:59:06.243Z,96150.53
2023-11-12T06:00:12.385Z,96149.13
2023-11-12T06:01:14.201Z,96153.28
2023-11-12T06:02:16.013Z,96159.44
2023-11-12T06:03:18.021Z,96145.56
2023-11-12T06:04:20.332Z,96148.78
2023-11-12T06:05:22.216Z,96142.63
2023-11-12T06:06:24.043Z,96146.63
2023-11-12T06:07:26.074Z,96149.03
2023-11-12T06:08:27.782Z,96153.03
2023-11-12T06:09:29.610Z,96151.00
2023-11-12T06:10:31.615Z,96155.00
2023-11-12T06:11:36.525Z,96155.63
2023-11-12T06:12:38.371Z,96148.72
2023-11-12T06:13:40.237Z,96149.66
2023-11-12T06:14:41.941Z,96147.88
2023-11-12T06:15:43.993Z,96144.78
2023-11-12T06:16:45.815Z,96144.59
2023-11-12T06:17:47.589Z,96138.47
2023-11-12T06:18:50.199Z,96142.00
2023-11-12T06:19:53.187Z,96147.16
2023-11-12T06:20:56.256Z,96144.59
2023-11-12T06:21:58.605Z,96148.16
2023-11-12T06:23:00.436Z,96142.84
2023-11-12T06:24:02.213Z,96145.59
2023-11-12T06:25:04.087Z,96142.84
2023-11-12T06:26:05.888Z,96148.63
2023-11-12T06:27:07.770Z,96152.00
2023-11-12T06:28:10.428Z,96151.00
2023-11-12T06:29:12.115Z,96153.41
2023-11-12T06:30:13.941Z,96152.63
2023-11-12T06:31:16.778Z,96160.97
2023-11-12T06:32:19.298Z,96159.03
2023-11-12T06:33:21.181Z,96165.16
2023-11-12T06:34:22.962Z,96164.34
2023-11-12T06:35:24.842Z,96168.72
2023-11-12T06:36:26.697Z,96158.41
2023-11-12T06:37:29.435Z,96163.56
2023-11-12T06:38:31.257Z,96163.56
2023-11-12T06:39:33.034Z,96167.09
2023-11-12T06:40:34.868Z,96160.19
2023-11-12T06:41:36.616Z,96160.34
2023-11-12T06:42:40.898Z,96157.78
2023-11-12T06:43:42.915Z,96163.91
2023-11-12T06:44:44.776Z,96161.69
2023-11-12T06:45:46.724Z,96161.69
2023-11-12T06:46:48.563Z,96164.28
2023-11-12T06:47:50.408Z,96165.59
2023-11-12T06:48:52.396Z,96157.88
2023-11-12T06:49:56.877Z,96163.19
2023-11-12T06:50:59.829Z,96161.41
2023-11-12T06:52:03.035Z,96166.47
2023-11-12T06:53:05.226Z,96157.31
2023-11-12T06:54:07.905Z,96160.53
2023-11-12T06:55:10.038Z,96161.31
2023-11-12T06:56:11.923Z,96162.56
2023-11-12T06:57:13.695Z,96161.78
2023-11-12T06:58:15.504Z,96161.78
2023-11-12T06:59:17.510Z,96160.16
2023-11-12T07:00:20.206Z,96156.53
2023-11-12T07:01:22.218Z,96155.72
2023-11-12T07:02:24.426Z,96155.25
2023-11-12T07:03:26.414Z,96151.88
2023-11-12T07:04:28.308Z,96148.34
2023-11-12T07:05:32.856Z,96155.53
2023-11-12T07:06:34.634Z,96156.94
2023-11-12T07:07:36.403Z,96160.16
2023-11-12T07:08:40.099Z,96160.16
2023-11-12T07:09:42.606Z,96155.28
2023-11-12T07:10:45.216Z,96153.41
2023-11-12T07:11:47.057Z,96158.81
2023-11-12T07:12:48.933Z,96151.53
2023-11-12T07:13:51.728Z,96156.16
2023-11-12T07:14:53.530Z,96156.16
2023-11-12T07:15:56.736Z,96154.13
2023-11-12T07:16:58.730Z,96153.66
2023-11-12T07:18:00.506Z,96152.34
2023-11-12T07:19:02.698Z,96155.72
2023-11-12T07:20:04.567Z,96156.16
2023-11-12T07:21:06.370Z,96152.41
2023-11-12T07:22:08.134Z,96155.00
2023-11-12T07:23:10.067Z,96155.00
2023-11-12T07:24:12.036Z,96154.03
2023-11-12T07:25:14.425Z,96154.19
2023-11-12T07:26:16.135Z,96155.19
2023-11-12T07:27:18.158Z,96148.25
2023-11-12T07:28:20.046Z,96151.38
2023-11-12T07:29:21.936Z,96148.34
2023-11-12T07:30:23.756Z,96147.72
2023-11-12T07:31:25.914Z,96152.50
2023-11-12T07:32:27.795Z,96156.06
2023-11-12T07:33:29.524Z,96155.25
2023-11-12T07:34:31.320Z,96157.94
2023-11-12T07:35:34.067Z,96157.50
2023-11-12T07:36:37.481Z,96155.25
2023-11-12T07:37:39.377Z,96153.22
2023-11-12T07:38:41.591Z,96157.03
2023-11-12T07:39:43.482Z,96152.88
2023-11-12T07:40:45.574Z,96159.97
2023-11-12T07:41:48.154Z,96153.22
2023-11-12T07:42:50.006Z,96151.63
2023-11-12T07:43:51.938Z,96159.53
2023-11-12T07:44:59.882Z,96156.78
2023-11-12T07:46:05.402Z,96153.22
2023-11-12T07:47:07.563Z,96157.66
2023-11-12T07:48:09.930Z,96156.53
2023-11-12T07:49:13.600Z,96162.13
2023-11-12T07:50:15.433Z,96154.56
2023-11-12T07:51:17.223Z,96158.03
2023-11-12T07:52:18.939Z,96163.25
2023-11-12T07:53:21.910Z,96156.66
2023-11-12T07:54:24.533Z,96162.09
2023-11-12T07:55:26.517Z,96162.44
2023-11-12T07:56:34.289Z,96165.84
2023-11-12T07:57:41.024Z,96160.84
2023-11-12T07:58:44.072Z,96158.44
2023-11-12T07:59:45.924Z,96164.13
2023-11-12T08:00:47.817Z,96156.09
2023-11-12T08:01:49.614Z,96159.16
2023-11-12T08:02:51.459Z,96162.97
2023-11-12T08:03:53.636Z,96159.78
2023-11-12T08:04:56.630Z,96163.97
2023-11-12T08:05:58.443Z,96166.34
2023-11-12T08:07:00.231Z,96170.00
2023-11-12T08:08:01.994Z,96163.88
2023-11-12T08:09:04.344Z,96167.78
2023-11-12T08:10:08.040Z,96171.69
2023-11-12T08:11:10.826Z,96162.97
2023-11-12T08:12:12.713Z,96166.63
2023-11-12T08:13:17.056Z,96160.22
2023-11-12T08:14:19.063Z,96170.88
2023-11-12T08:15:21.363Z,96164.41
2023-11-12T08:16:23.218Z,96163.25
2023-11-12T08:17:25.173Z,96163.88
2023-11-12T08:18:27.263Z,96166.91
2023-11-12T08:19:29.040Z,96170.56
2023-11-12T08:20:30.810Z,96167.97
2023-11-12T08:21:32.616Z,96169.59
2023-11-12T08:22:34.363Z,96173.13
2023-11-12T08:23:36.153Z,96170.72
2023-11-12T08:24:38.360Z,96173.94
2023-11-12T08:25:40.148Z,96172.34
2023-11-12T08:26:42.876Z,96177.97
2023-11-12T08:27:45.212Z,96179.91
2023-11-12T08:28:48.644Z,96180.25
2023-11-12T08:29:51.264Z,96172.41
2023-11-12T08:30:53.276Z,96168.22
2023-11-12T08:31:56.051Z,96166.81
2023-11-12T08:32:58.328Z,96164.22
2023-11-12T08:34:00.147Z,96166.00
2023-11-12T08:35:01.924Z,96169.75
2023-11-12T08:36:04.916Z,96163.06
2023-11-12T08:37:08.174Z,96162.91
2023-11-12T08:38:10.192Z,96166.47
2023-11-12T08:39:14.493Z,96169.47
2023-11-12T08:40:20.005Z,96164.06
2023-11-12T08:41:22.122Z,96165.16
2023-11-12T08:42:25.451Z,96171.63
2023-11-12T08:43:27.240Z,96160.25
2023-11-12T08:44:29.146Z,96161.03
2023-11-12T08:45:31.359Z,96162.31
2023-11-12T08:46:33.237Z,96155.38
2023-11-12T08:47:35.074Z,96164.69
2023-11-12T08:48:36.918Z,96155.00
2023-11-12T08:49:38.651Z,96156.63
2023-11-12T08:50:41.157Z,96159.03
2023-11-12T08:51:42.995Z,96162.41
2023-11-12T08:52:44.923Z,96155.00
2023-11-12T08:53:46.777Z,96161.94
2023-11-12T08:54:49.283Z,96156.06
2023-11-12T08:55:51.288Z,96158.75
2023-11-12T08:56:56.253Z,96157.41
2023-11-12T08:57:58.163Z,96155.72
2023-11-12T08:59:00.492Z,96158.38
2023-11-12T09:00:07.782Z,96159.91
2023-11-12T09:01:13.485Z,96162.56
2023-11-12T09:02:15.481Z,96169.75
2023-11-12T09:03:17.371Z,96165.66
2023-11-12T09:04:19.678Z,96166.03
2023-11-12T09:05:21.920Z,96170.66
2023-11-12T09:06:23.774Z,96169.31
2023-11-12T09:07:25.570Z,96166.19
2023-11-12T09:08:27.632Z,96169.84
2023-11-12T09:09:29.457Z,96165.97
2023-11-12T09:10:31.180Z,96158.13
2023-11-12T09:11:33.570Z,96156.06
2023-11-12T09:12:35.481Z,96165.28
2023-11-12T09:13:37.312Z,96167.50
2023-11-12T09:14:39.376Z,96156.44
2023-11-12T09:15:41.166Z,96153.72
2023-11-12T09:16:45.941Z,96163.28
2023-11-12T09:17:48.542Z,96162.09
2023-11-12T09:18:50.895Z,96154.56
2023-11-12T09:19:53.215Z,96160.19
2023-11-12T09:20:55.096Z,96159.00
2023-11-12T09:21:56.964Z,96155.44
2023-11-12T09:22:59.274Z,96151.06
2023-11-12T09:24:01.707Z,96150.72
2023-11-12T09:25:10.829Z,96151.13
2023-11-12T09:26:24.047Z,96151.13
2023-11-12T09:27:26.043Z,96156.72
2023-11-12T09:28:27.819Z,96160.19
2023-11-12T09:29:30.156Z,96155.44
2023-11-12T09:30:44.692Z,96155.47
2023-11-12T09:31:56.089Z,96154.31
2023-11-12T09:32:58.059Z,96155.53
2023-11-12T09:33:59.905Z,96147.81
2023-11-12T09:35:02.241Z,96155.63
2023-11-12T09:36:04.436Z,96146.50
2023-11-12T09:37:07.228Z,96152.50
2023-11-12T09:38:11.120Z,96151.06
2023-11-12T09:39:14.429Z,96154.25
2023-11-12T09:40:17.678Z,96145.13
2023-11-12T09:41:21.498Z,96150.34
2023-11-12T09:42:27.039Z,96148.00
2023-11-12T09:43:30.127Z,96147.41
2023-11-12T09:44:35.014Z,96145.84
2023-11-12T09:45:38.990Z,96145.25
2023-11-12T09:46:41.193Z,96150.78
2023-11-12T09:47:54.618Z,96151.81
2023-11-12T09:48:56.453Z,96145.44
2023-11-12T09:49:59.056Z,96149.59
2023-11-12T09:51:01.764Z,96146.66
2023-11-12T09:52:04.275Z,96148.50
2023-11-12T09:53:07.192Z,96146.38
2023-11-12T09:54:09.970Z,96153.38
2023-11-12T09:55:12.257Z,96150.00
2023-11-12T09:56:14.830Z,96148.22
2023-11-12T09:57:17.042Z,96142.28
2023-11-12T09:58:18.829Z,96149.66
2023-11-12T09:59:20.781Z,96143.28
2023-11-12T10:00:23.424Z,96143.50
2023-11-12T10:01:26.008Z,96133.50
2023-11-12T10:02:28.497Z,96138.28
2023-11-12T10:03:30.390Z,96134.69
2023-11-12T10:04:32.353Z,96141.47
2023-11-12T10:05:35.815Z,96138.88
2023-11-12T10:06:40.355Z,96136.09
2023-11-12T10:07:42.556Z,96141.09
2023-11-12T10:08:44.535Z,96137.13
2023-11-12T10:09:46.389Z,96133.94
2023-11-12T10:10:49.262Z,96142.13
2023-11-12T10:11:51.114Z,96139.91
2023-11-12T10:12:54.510Z,96131.94
2023-11-12T10:13:57.773Z,96135.31
2023-11-12T10:15:03.652Z,96131.97
2023-11-12T10:16:22.322Z,96129.97
2023-11-12T10:17:24.091Z,96124.84
2023-11-12T10:18:29.772Z,96125.25
2023-11-12T10:19:31.973Z,96126.06
2023-11-12T10:20:40.436Z,96123.88
2023-11-12T10:21:57.887Z,96125.69
2023-11-12T10:23:03.786Z,96127.66
2023-11-12T10:24:06.842Z,96120.50
2023-11-12T10:25:09.102Z,96124.88
2023-11-12T10:26:16.384Z,96119.28
2023-11-12T10:27:18.378Z,96122.72
2023-11-12T10:28:20.901Z,96121.88
2023-11-12T10:29:24.498Z,96118.13
2023-11-12T10:30:28.754Z,96120.91
2023-11-12T10:31:39.385Z,96120.13
2023-11-12T10:32:41.665Z,96117.75
2023-11-12T10:34:01.183Z,96116.94
2023-11-12T10:35:03.765Z,96113.75
2023-11-12T10:36:11.104Z,96114.53
2023-11-12T10:37:16.139Z,96116.94
2023-11-12T10:38:19.259Z,96114.94
2023-11-12T10:39:22.046Z,96110.53
2023-11-12T10:40:25.017Z,96115.53
2023-11-12T10:41:33.945Z,96106.56
2023-11-12T10:42:35.765Z,96110.16
2023-11-12T10:43:37.593Z,96112.34
2023-11-12T10:44:39.708Z,96096.59
2023-11-12T10:45:42.597Z,96102.75
2023-11-12T10:46:51.628Z,96092.00
2023-11-12T10:47:57.465Z,96104.38
2023-11-12T10:48:59.470Z,96106.38
2023-11-12T10:50:02.100Z,96106.56
2023-11-12T10:51:08.056Z,96099.78
2023-11-12T10:52:11.456Z,96104.16
2023-11-12T10:53:14.640Z,96102.78
2023-11-12T10:54:17.386Z,96103.97
2023-11-12T10:55:19.418Z,96099.97
2023-11-12T10:56:23.163Z,96101.94
2023-11-12T10:57:25.892Z,96099.56
2023-11-12T10:58:34.182Z,96095.75
2023-11-12T10:59:38.950Z,96090.19
2023-11-12T11:00:42.178Z,96093.16
2023-11-12T11:01:44.323Z,96094.75
2023-11-12T11:02:49.031Z,96089.75
2023-11-12T11:03:52.898Z,96097.91
2023-11-12T11:04:56.547Z,96096.72
2023-11-12T11:06:08.037Z,96092.13
2023-11-12T11:07:09.988Z,96090.53
2023-11-12T11:08:13.430Z,96094.31
2023-11-12T11:09:15.655Z,96087.91
2023-11-12T11:10:18.075Z,96093.91
2023-11-12T11:11:19.897Z,96091.69
2023-11-12T11:12:23.771Z,96092.09
2023-11-12T11:13:27.128Z,96082.50
2023-11-12T11:14:29.369Z,96083.91
2023-11-12T11:15:49.306Z,96081.69
2023-11-12T11:16:54.369Z,96077.69
2023-11-12T11:17:56.356Z,96077.47
2023-11-12T11:18:58.376Z,96074.47
2023-11-12T11:20:02.290Z,96077.66
2023-11-12T11:21:04.537Z,96074.44
2023-11-12T11:22:28.112Z,96071.19
2023-11-12T11:23:43.625Z,96077.97
2023-11-12T11:24:46.916Z,96069.78
2023-11-12T11:25:49.377Z,96068.38
2023-11-12T11:26:54.362Z,96070.38
2023-11-12T11:28:19.103Z,96065.56
2023-11-12T11:29:21.192Z,96067.75
2023-11-12T11:30:24.860Z,96069.13
2023-11-12T11:31:26.791Z,96064.34
2023-11-12T11:32:29.449Z,96057.50
2023-11-12T11:33:46.429Z,96057.50
2023-11-12T11:34:49.834Z,96058.88
2023-11-12T11:35:53.628Z,96059.25
2023-11-12T11:37:00.967Z,96053.47
2023-11-12T11:38:15.361Z,96055.03
2023-11-12T11:39:24.949Z,96055.56
2023-11-12T11:40:30.365Z,96056.34
2023-11-12T11:41:47.303Z,96050.69
2023-11-12T11:43:09.027Z,96054.47
2023-11-12T11:44:29.182Z,96054.84
2023-11-12T11:45:31.171Z,96055.22
2023-11-12T11:46:32.978Z,96059.41
2023-11-12T11:47:34.901Z,96062.19
2023-11-12T11:48:46.415Z,96053.34
2023-11-12T11:50:00.472Z,96056.78
2023-11-12T11:51:03.996Z,96058.94
2023-11-12T11:52:10.119Z,96048.69
2023-11-12T11:53:13.042Z,96043.84
2023-11-12T11:54:17.942Z,96048.00
2023-11-12T11:55:24.007Z,96041.56
2023-11-12T11:56:28.198Z,96040.56
2023-11-12T11:57:30.858Z,96040.56
2023-11-12T11:58:59.131Z,96034.94
2023-11-12T12:00:01.215Z,96037.88
2023-11-12T12:01:02.927Z,96039.28
2023-11-12T12:02:16.876Z,96038.84
2023-11-12T12:03:20.743Z,96039.81
2023-11-12T12:04:24.656Z,96037.84
2023-11-12T12:05:34.447Z,96031.63
2023-11-12T12:06:41.753Z,96038.56
2023-11-12T12:07:47.419Z,96034.59
2023-11-12T12:08:51.925Z,96032.97
2023-11-12T12:09:57.589Z,96026.00
2023-11-12T12:11:17.159Z,96029.59
2023-11-12T12:12:19.071Z,96032.00
2023-11-12T12:13:23.500Z,96029.53
2023-11-12T12:14:28.105Z,96026.28
2023-11-12T12:15:30.015Z,96025.84
2023-11-12T12:16:35.523Z,96029.47
2023-11-12T12:17:42.439Z,96031.84
2023-11-12T12:18:44.846Z,96022.81
2023-11-12T12:19:52.156Z,96027.56
2023-11-12T12:20:55.146Z,96028.41
2023-11-12T12:21:57.133Z,96023.53
2023-11-12T12:23:00.531Z,96025.06